Seabourn Legend — C6FR6 — position and weather

sailwx.info

Track history (hours):
 
Tides and Currents Weather Stations Pressure Air Temp Water Temp Dewpoint Dewpoint Depression Visibility Wind Speed Wind Dir Waves Ship Positions

Seabourn Legend

Operator: Cunard Seabourn

Last reported at 2019-Jan-13 10:38 UTC. Time now 2019-Jan-23 22:48 UTC.
Position N 01°14' E 104°01'.
Warning: this ship's position is 10 days out of date.

Length 135 m; draft 5.8 m.

Type: Passenger vessel. MMSI: 311085000.

Date/timePositionNaut miles runAvg speedWind from/ knotsBaromVisibWave heightAir tempDewpointWater temp
2019-Jan-13 10:38N 01°14' E 104°01'211.4
2019-Jan-13 10:26N 01°14' E 103°59'713.7
2019-Jan-13 09:56N 01°12' E 103°52'410.7
2019-Jan-13 09:31N 01°13' E 103°48'3 6.4
2019-Jan-13 09:01N 01°16' E 103°49'0 0.0
2019-Jan-13 08:26N 01°16' E 103°49'0 0.0
2019-Jan-13 07:56N 01°16' E 103°49'0 0.0
2019-Jan-13 07:26N 01°16' E 103°49'0 0.0
2019-Jan-13 06:50N 01°16' E 103°49'0 0.0
2019-Jan-13 06:25N 01°16' E 103°49'0 0.0
2019-Jan-13 05:59N 01°16' E 103°49'0 0.0
2019-Jan-13 05:28N 01°16' E 103°49'0 0.0
2019-Jan-13 04:55N 01°16' E 103°49'0 0.0
2019-Jan-13 04:28N 01°16' E 103°49'0 0.0
2019-Jan-13 03:55N 01°16' E 103°49'0 0.0
2019-Jan-13 03:26N 01°16' E 103°49'0 0.0
2019-Jan-13 02:55N 01°16' E 103°49'0 0.0
2019-Jan-13 02:19N 01°16' E 103°49'0 0.0
2019-Jan-13 01:59N 01°16' E 103°49'0 0.0
2019-Jan-13 01:25N 01°16' E 103°49'0 0.0
2019-Jan-13 00:55N 01°16' E 103°49'0 0.0
2019-Jan-13 00:28N 01°16' E 103°49'0 0.0
2019-Jan-12 23:58N 01°16' E 103°49'0 0.0
2019-Jan-12 23:26N 01°16' E 103°49'0 0.0
2019-Jan-12 22:59N 01°16' E 103°49'0 0.3
2019-Jan-12 22:31N 01°16' E 103°49'2 3.9
2019-Jan-12 22:01N 01°15' E 103°47'5 9.8
2019-Jan-12 21:30N 01°12' E 103°51'510.0
2019-Jan-12 21:00N 01°14' E 103°56'711.6
2019-Jan-12 20:25N 01°16' E 104°03'  
2019-Jan-06 11:15S 07°39' E 113°21'4 0.3
2019-Jan-05 22:57S 07°41' E 113°18'8 8.9
2019-Jan-05 22:05S 07°37' E 113°24'  
Track history (hours):
 
Tides and Currents Weather Stations Pressure Air Temp Water Temp Dewpoint Dewpoint Depression Visibility Wind Speed Wind Dir Waves Ship Positions

Seabourn Legend

Operator: Cunard Seabourn

Last reported at 2019-Jan-13 10:38 UTC. Time now 2019-Jan-23 22:48 UTC.
Position N 01°14' E 104°01'.
Warning: this ship's position is 10 days out of date.

Length 135 m; draft 5.8 m.

Type: Passenger vessel. MMSI: 311085000.

Date/timePositionNaut miles runAvg speedWind from/ knotsBaromVisibWave heightAir tempDewpointWater temp
2019-Jan-13 10:38N 01°14' E 104°01'211.4
2019-Jan-13 10:26N 01°14' E 103°59'713.7
2019-Jan-13 09:56N 01°12' E 103°52'410.7
2019-Jan-13 09:31N 01°13' E 103°48'3 6.4
2019-Jan-13 09:01N 01°16' E 103°49'0 0.0
2019-Jan-13 08:26N 01°16' E 103°49'0 0.0
2019-Jan-13 07:56N 01°16' E 103°49'0 0.0
2019-Jan-13 07:26N 01°16' E 103°49'0 0.0
2019-Jan-13 06:50N 01°16' E 103°49'0 0.0
2019-Jan-13 06:25N 01°16' E 103°49'0 0.0
2019-Jan-13 05:59N 01°16' E 103°49'0 0.0
2019-Jan-13 05:28N 01°16' E 103°49'0 0.0
2019-Jan-13 04:55N 01°16' E 103°49'0 0.0
2019-Jan-13 04:28N 01°16' E 103°49'0 0.0
2019-Jan-13 03:55N 01°16' E 103°49'0 0.0
2019-Jan-13 03:26N 01°16' E 103°49'0 0.0
2019-Jan-13 02:55N 01°16' E 103°49'0 0.0
2019-Jan-13 02:19N 01°16' E 103°49'0 0.0
2019-Jan-13 01:59N 01°16' E 103°49'0 0.0
2019-Jan-13 01:25N 01°16' E 103°49'0 0.0
2019-Jan-13 00:55N 01°16' E 103°49'0 0.0
2019-Jan-13 00:28N 01°16' E 103°49'0 0.0
2019-Jan-12 23:58N 01°16' E 103°49'0 0.0
2019-Jan-12 23:26N 01°16' E 103°49'0 0.0
2019-Jan-12 22:59N 01°16' E 103°49'0 0.3
2019-Jan-12 22:31N 01°16' E 103°49'2 3.9
2019-Jan-12 22:01N 01°15' E 103°47'5 9.8
2019-Jan-12 21:30N 01°12' E 103°51'510.0
2019-Jan-12 21:00N 01°14' E 103°56'711.6
2019-Jan-12 20:25N 01°16' E 104°03'  
2019-Jan-06 11:15S 07°39' E 113°21'4 0.3
2019-Jan-05 22:57S 07°41' E 113°18'8 8.9
2019-Jan-05 22:05S 07°37' E 113°24'  

Dump ship's entire track history